sensor_id;sensor_type;location;lat;lon;timestamp;P1;durP1;ratioP1;P2;durP2;ratioP2
45316;SDS011;31053;55.870;37.592;2023-05-10T00:00:39;7.25;;;2.97;;
45316;SDS011;31053;55.870;37.592;2023-05-10T00:03:45;12.38;;;3.25;;
45316;SDS011;31053;55.870;37.592;2023-05-10T00:06:50;8.57;;;2.83;;
45316;SDS011;31053;55.870;37.592;2023-05-10T00:09:55;9.00;;;2.63;;
45316;SDS011;31053;55.870;37.592;2023-05-10T00:13:01;13.97;;;4.13;;
45316;SDS011;31053;55.870;37.592;2023-05-10T00:16:09;6.70;;;3.00;;
45316;SDS011;31053;55.870;37.592;2023-05-10T00:19:14;10.90;;;2.92;;
45316;SDS011;31053;55.870;37.592;2023-05-10T00:22:23;5.63;;;3.38;;
45316;SDS011;31053;55.870;37.592;2023-05-10T00:25:30;7.30;;;3.47;;
45316;SDS011;31053;55.870;37.592;2023-05-10T00:28:37;6.90;;;2.35;;
45316;SDS011;31053;55.870;37.592;2023-05-10T00:31:50;7.47;;;2.85;;
45316;SDS011;31053;55.870;37.592;2023-05-10T00:34:56;8.30;;;3.90;;
45316;SDS011;31053;55.870;37.592;2023-05-10T00:38:05;10.43;;;3.30;;
45316;SDS011;31053;55.870;37.592;2023-05-10T00:41:12;7.38;;;3.17;;
45316;SDS011;31053;55.870;37.592;2023-05-10T00:44:22;6.45;;;3.40;;
45316;SDS011;31053;55.870;37.592;2023-05-10T00:47:28;16.63;;;3.37;;
45316;SDS011;31053;55.870;37.592;2023-05-10T00:50:34;8.27;;;2.75;;
45316;SDS011;31053;55.870;37.592;2023-05-10T00:53:39;8.80;;;2.90;;
45316;SDS011;31053;55.870;37.592;2023-05-10T00:56:52;7.50;;;2.22;;
45316;SDS011;31053;55.870;37.592;2023-05-10T01:00:04;6.40;;;3.05;;
45316;SDS011;31053;55.870;37.592;2023-05-10T01:03:18;6.35;;;2.42;;
45316;SDS011;31053;55.870;37.592;2023-05-10T01:10:36;5.80;;;2.85;;
45316;SDS011;31053;55.870;37.592;2023-05-10T01:13:43;5.80;;;2.63;;
45316;SDS011;31053;55.870;37.592;2023-05-10T01:16:54;4.82;;;2.65;;
45316;SDS011;31053;55.870;37.592;2023-05-10T01:20:02;4.72;;;2.63;;
45316;SDS011;31053;55.870;37.592;2023-05-10T01:37:10;4.40;;;2.10;;
45316;SDS011;31053;55.870;37.592;2023-05-10T01:40:39;8.20;;;3.50;;
45316;SDS011;31053;55.870;37.592;2023-05-10T01:44:16;9.77;;;3.95;;
45316;SDS011;31053;55.870;37.592;2023-05-10T01:47:34;7.38;;;2.70;;
45316;SDS011;31053;55.870;37.592;2023-05-10T01:50:45;12.00;;;3.30;;
45316;SDS011;31053;55.870;37.592;2023-05-10T01:53:54;10.70;;;3.20;;
45316;SDS011;31053;55.870;37.592;2023-05-10T01:57:03;8.20;;;4.18;;
45316;SDS011;31053;55.870;37.592;2023-05-10T02:00:11;10.63;;;4.78;;
45316;SDS011;31053;55.870;37.592;2023-05-10T02:03:22;12.40;;;4.45;;
45316;SDS011;31053;55.870;37.592;2023-05-10T02:06:35;17.17;;;4.65;;
45316;SDS011;31053;55.870;37.592;2023-05-10T02:09:44;7.38;;;2.60;;
45316;SDS011;31053;55.870;37.592;2023-05-10T02:12:52;9.07;;;3.58;;
45316;SDS011;31053;55.870;37.592;2023-05-10T02:15:58;5.53;;;3.03;;
45316;SDS011;31053;55.870;37.592;2023-05-10T02:19:11;10.35;;;3.72;;
45316;SDS011;31053;55.870;37.592;2023-05-10T02:22:41;6.90;;;2.72;;
45316;SDS011;31053;55.870;37.592;2023-05-10T02:25:53;9.68;;;3.25;;
45316;SDS011;31053;55.870;37.592;2023-05-10T02:29:01;6.25;;;3.22;;
45316;SDS011;31053;55.870;37.592;2023-05-10T02:32:11;12.45;;;3.78;;
45316;SDS011;31053;55.870;37.592;2023-05-10T02:35:19;10.43;;;3.92;;
45316;SDS011;31053;55.870;37.592;2023-05-10T02:38:49;10.25;;;3.83;;
45316;SDS011;31053;55.870;37.592;2023-05-10T02:42:00;7.93;;;3.03;;
45316;SDS011;31053;55.870;37.592;2023-05-10T02:45:11;11.65;;;3.40;;
45316;SDS011;31053;55.870;37.592;2023-05-10T02:48:21;8.30;;;3.33;;
45316;SDS011;31053;55.870;37.592;2023-05-10T02:51:31;20.20;;;4.30;;
45316;SDS011;31053;55.870;37.592;2023-05-10T02:54:44;5.28;;;2.95;;
45316;SDS011;31053;55.870;37.592;2023-05-10T02:58:00;11.50;;;3.83;;
45316;SDS011;31053;55.870;37.592;2023-05-10T03:09:07;13.60;;;3.40;;
45316;SDS011;31053;55.870;37.592;2023-05-10T03:12:31;7.22;;;3.30;;
45316;SDS011;31053;55.870;37.592;2023-05-10T03:15:51;4.30;;;2.28;;
45316;SDS011;31053;55.870;37.592;2023-05-10T03:19:12;7.10;;;3.20;;
45316;SDS011;31053;55.870;37.592;2023-05-10T03:22:41;5.13;;;2.60;;
45316;SDS011;31053;55.870;37.592;2023-05-10T03:26:05;3.47;;;1.98;;
45316;SDS011;31053;55.870;37.592;2023-05-10T03:29:11;6.90;;;2.63;;
45316;SDS011;31053;55.870;37.592;2023-05-10T03:32:19;5.75;;;3.38;;
45316;SDS011;31053;55.870;37.592;2023-05-10T03:35:24;10.48;;;2.25;;
45316;SDS011;31053;55.870;37.592;2023-05-10T03:38:49;11.82;;;3.78;;
45316;SDS011;31053;55.870;37.592;2023-05-10T03:42:08;8.27;;;3.83;;
45316;SDS011;31053;55.870;37.592;2023-05-10T03:45:21;12.82;;;3.53;;
45316;SDS011;31053;55.870;37.592;2023-05-10T03:48:27;16.08;;;3.42;;
45316;SDS011;31053;55.870;37.592;2023-05-10T03:51:33;7.28;;;3.10;;
45316;SDS011;31053;55.870;37.592;2023-05-10T03:54:39;11.15;;;3.50;;
45316;SDS011;31053;55.870;37.592;2023-05-10T03:57:48;13.48;;;3.42;;
45316;SDS011;31053;55.870;37.592;2023-05-10T04:01:04;13.57;;;3.00;;
45316;SDS011;31053;55.870;37.592;2023-05-10T04:04:11;8.48;;;2.67;;
45316;SDS011;31053;55.870;37.592;2023-05-10T04:07:21;12.20;;;3.15;;
45316;SDS011;31053;55.870;37.592;2023-05-10T04:14:10;5.80;;;2.63;;
45316;SDS011;31053;55.870;37.592;2023-05-10T04:17:22;9.60;;;3.40;;
45316;SDS011;31053;55.870;37.592;2023-05-10T04:20:36;9.10;;;2.60;;
45316;SDS011;31053;55.870;37.592;2023-05-10T04:23:44;5.97;;;2.20;;
45316;SDS011;31053;55.870;37.592;2023-05-10T04:26:50;8.40;;;2.63;;
45316;SDS011;31053;55.870;37.592;2023-05-10T04:29:58;7.25;;;2.72;;
45316;SDS011;31053;55.870;37.592;2023-05-10T04:33:09;6.72;;;2.95;;
45316;SDS011;31053;55.870;37.592;2023-05-10T04:36:14;11.63;;;2.97;;
45316;SDS011;31053;55.870;37.592;2023-05-10T04:39:21;8.63;;;2.13;;
45316;SDS011;31053;55.870;37.592;2023-05-10T04:42:29;6.05;;;2.60;;
45316;SDS011;31053;55.870;37.592;2023-05-10T04:45:34;4.63;;;2.20;;
45316;SDS011;31053;55.870;37.592;2023-05-10T04:48:45;5.10;;;1.95;;
45316;SDS011;31053;55.870;37.592;2023-05-10T04:51:57;11.40;;;2.13;;
45316;SDS011;31053;55.870;37.592;2023-05-10T04:55:07;7.57;;;1.88;;
45316;SDS011;31053;55.870;37.592;2023-05-10T04:58:15;3.15;;;1.40;;
45316;SDS011;31053;55.870;37.592;2023-05-10T05:01:27;5.93;;;1.92;;
45316;SDS011;31053;55.870;37.592;2023-05-10T05:04:34;11.75;;;2.22;;
45316;SDS011;31053;55.870;37.592;2023-05-10T05:07:52;7.68;;;2.17;;
45316;SDS011;31053;55.870;37.592;2023-05-10T05:11:06;6.30;;;2.40;;
45316;SDS011;31053;55.870;37.592;2023-05-10T05:14:21;4.50;;;2.20;;
45316;SDS011;31053;55.870;37.592;2023-05-10T05:17:38;3.90;;;2.28;;
45316;SDS011;31053;55.870;37.592;2023-05-10T05:21:34;3.10;;;1.60;;
45316;SDS011;31053;55.870;37.592;2023-05-10T05:24:46;5.90;;;2.03;;
45316;SDS011;31053;55.870;37.592;2023-05-10T05:27:51;6.90;;;1.95;;
45316;SDS011;31053;55.870;37.592;2023-05-10T05:30:57;4.55;;;1.63;;
45316;SDS011;31053;55.870;37.592;2023-05-10T05:34:08;4.78;;;1.73;;
45316;SDS011;31053;55.870;37.592;2023-05-10T05:37:16;9.38;;;1.88;;
45316;SDS011;31053;55.870;37.592;2023-05-10T05:40:24;6.65;;;1.63;;
45316;SDS011;31053;55.870;37.592;2023-05-10T05:43:30;6.03;;;2.53;;
45316;SDS011;31053;55.870;37.592;2023-05-10T05:46:36;10.98;;;2.20;;
45316;SDS011;31053;55.870;37.592;2023-05-10T05:49:45;3.38;;;1.63;;
45316;SDS011;31053;55.870;37.592;2023-05-10T05:52:55;3.22;;;1.77;;
45316;SDS011;31053;55.870;37.592;2023-05-10T05:56:04;5.93;;;2.03;;
45316;SDS011;31053;55.870;37.592;2023-05-10T05:59:10;2.67;;;1.45;;
45316;SDS011;31053;55.870;37.592;2023-05-10T06:02:16;4.93;;;1.48;;
45316;SDS011;31053;55.870;37.592;2023-05-10T06:05:27;6.88;;;1.80;;
45316;SDS011;31053;55.870;37.592;2023-05-10T06:08:35;5.43;;;2.00;;
45316;SDS011;31053;55.870;37.592;2023-05-10T06:11:46;8.80;;;2.17;;
45316;SDS011;31053;55.870;37.592;2023-05-10T06:14:52;12.65;;;1.60;;
45316;SDS011;31053;55.870;37.592;2023-05-10T06:17:58;6.20;;;1.33;;
45316;SDS011;31053;55.870;37.592;2023-05-10T06:21:05;3.60;;;1.70;;
45316;SDS011;31053;55.870;37.592;2023-05-10T06:24:12;3.00;;;1.55;;
45316;SDS011;31053;55.870;37.592;2023-05-10T06:27:23;8.23;;;1.67;;
45316;SDS011;31053;55.870;37.592;2023-05-10T06:30:31;5.15;;;1.38;;
45316;SDS011;31053;55.870;37.592;2023-05-10T06:33:37;4.38;;;1.40;;
45316;SDS011;31053;55.870;37.592;2023-05-10T06:36:44;9.50;;;1.75;;
45316;SDS011;31053;55.870;37.592;2023-05-10T06:39:50;2.08;;;1.20;;
45316;SDS011;31053;55.870;37.592;2023-05-10T06:46:03;3.30;;;1.73;;
45316;SDS011;31053;55.870;37.592;2023-05-10T06:49:11;10.85;;;1.63;;
45316;SDS011;31053;55.870;37.592;2023-05-10T06:52:17;6.28;;;1.50;;
45316;SDS011;31053;55.870;37.592;2023-05-10T06:55:23;2.88;;;1.35;;
45316;SDS011;31053;55.870;37.592;2023-05-10T06:58:30;2.13;;;1.08;;
45316;SDS011;31053;55.870;37.592;2023-05-10T07:01:37;4.38;;;1.40;;
45316;SDS011;31053;55.870;37.592;2023-05-10T07:04:48;6.28;;;1.60;;
45316;SDS011;31053;55.870;37.592;2023-05-10T07:07:59;8.35;;;1.60;;
45316;SDS011;31053;55.870;37.592;2023-05-10T07:11:13;7.15;;;1.33;;
45316;SDS011;31053;55.870;37.592;2023-05-10T07:14:19;7.30;;;1.80;;
45316;SDS011;31053;55.870;37.592;2023-05-10T07:17:29;4.10;;;1.48;;
45316;SDS011;31053;55.870;37.592;2023-05-10T07:20:38;4.25;;;1.65;;
45316;SDS011;31053;55.870;37.592;2023-05-10T07:23:48;7.55;;;2.38;;
45316;SDS011;31053;55.870;37.592;2023-05-10T07:27:19;4.35;;;1.55;;
45316;SDS011;31053;55.870;37.592;2023-05-10T07:30:37;1.15;;;0.82;;
45316;SDS011;31053;55.870;37.592;2023-05-10T07:33:45;3.63;;;1.00;;
45316;SDS011;31053;55.870;37.592;2023-05-10T07:36:54;6.63;;;1.70;;
45316;SDS011;31053;55.870;37.592;2023-05-10T07:40:02;6.93;;;1.63;;
45316;SDS011;31053;55.870;37.592;2023-05-10T07:47:45;5.85;;;1.63;;
45316;SDS011;31053;55.870;37.592;2023-05-10T07:50:57;5.93;;;1.98;;
45316;SDS011;31053;55.870;37.592;2023-05-10T08:07:34;8.23;;;2.45;;
45316;SDS011;31053;55.870;37.592;2023-05-10T08:13:49;3.95;;;0.90;;
45316;SDS011;31053;55.870;37.592;2023-05-10T08:16:57;4.05;;;1.10;;
45316;SDS011;31053;55.870;37.592;2023-05-10T08:23:12;3.17;;;1.20;;
45316;SDS011;31053;55.870;37.592;2023-05-10T08:30:12;4.63;;;1.25;;
45316;SDS011;31053;55.870;37.592;2023-05-10T08:33:30;2.92;;;1.25;;
45316;SDS011;31053;55.870;37.592;2023-05-10T08:36:36;9.30;;;1.40;;
45316;SDS011;31053;55.870;37.592;2023-05-10T08:39:42;8.48;;;2.67;;
45316;SDS011;31053;55.870;37.592;2023-05-10T08:42:50;5.53;;;1.63;;
45316;SDS011;31053;55.870;37.592;2023-05-10T09:02:41;2.15;;;1.17;;
45316;SDS011;31053;55.870;37.592;2023-05-10T09:07:38;3.80;;;1.10;;
45316;SDS011;31053;55.870;37.592;2023-05-10T09:24:42;4.95;;;1.27;;
45316;SDS011;31053;55.870;37.592;2023-05-10T09:33:45;4.70;;;0.98;;
45316;SDS011;31053;55.870;37.592;2023-05-10T10:10:54;7.97;;;1.00;;
45316;SDS011;31053;55.870;37.592;2023-05-10T10:16:35;6.55;;;1.17;;
45316;SDS011;31053;55.870;37.592;2023-05-10T10:22:36;4.53;;;0.93;;
45316;SDS011;31053;55.870;37.592;2023-05-10T10:25:42;3.17;;;1.75;;
45316;SDS011;31053;55.870;37.592;2023-05-10T10:29:28;3.53;;;1.00;;
45316;SDS011;31053;55.870;37.592;2023-05-10T10:36:20;6.80;;;1.95;;
45316;SDS011;31053;55.870;37.592;2023-05-10T10:43:43;6.35;;;0.90;;
45316;SDS011;31053;55.870;37.592;2023-05-10T10:50:57;5.35;;;0.82;;
45316;SDS011;31053;55.870;37.592;2023-05-10T10:54:10;9.85;;;1.13;;
45316;SDS011;31053;55.870;37.592;2023-05-10T10:58:49;3.83;;;1.13;;
45316;SDS011;31053;55.870;37.592;2023-05-10T11:04:31;12.77;;;2.33;;
45316;SDS011;31053;55.870;37.592;2023-05-10T11:07:18;3.05;;;1.30;;
45316;SDS011;31053;55.870;37.592;2023-05-10T11:10:32;5.68;;;1.35;;
45316;SDS011;31053;55.870;37.592;2023-05-10T11:14:19;4.38;;;1.23;;
45316;SDS011;31053;55.870;37.592;2023-05-10T11:17:50;3.47;;;1.27;;
45316;SDS011;31053;55.870;37.592;2023-05-10T11:21:18;2.97;;;1.52;;
45316;SDS011;31053;55.870;37.592;2023-05-10T11:24:28;5.10;;;1.00;;
45316;SDS011;31053;55.870;37.592;2023-05-10T11:27:36;5.53;;;1.70;;
45316;SDS011;31053;55.870;37.592;2023-05-10T11:43:44;0.80;;;0.68;;
45316;SDS011;31053;55.870;37.592;2023-05-10T11:47:24;2.33;;;1.00;;
45316;SDS011;31053;55.870;37.592;2023-05-10T11:59:58;6.50;;;1.60;;
45316;SDS011;31053;55.870;37.592;2023-05-10T12:03:18;4.40;;;1.75;;
45316;SDS011;31053;55.870;37.592;2023-05-10T12:06:31;3.85;;;1.30;;
45316;SDS011;31053;55.870;37.592;2023-05-10T12:10:30;4.40;;;1.55;;
45316;SDS011;31053;55.870;37.592;2023-05-10T12:13:32;2.35;;;0.95;;
45316;SDS011;31053;55.870;37.592;2023-05-10T12:16:47;1.52;;;0.82;;
45316;SDS011;31053;55.870;37.592;2023-05-10T12:20:18;6.80;;;1.10;;
45316;SDS011;31053;55.870;37.592;2023-05-10T12:23:36;8.57;;;3.28;;
45316;SDS011;31053;55.870;37.592;2023-05-10T12:27:04;2.60;;;1.33;;
45316;SDS011;31053;55.870;37.592;2023-05-10T12:30:24;3.63;;;1.13;;
45316;SDS011;31053;55.870;37.592;2023-05-10T12:33:39;4.90;;;1.98;;
45316;SDS011;31053;55.870;37.592;2023-05-10T12:42:28;6.15;;;1.35;;
45316;SDS011;31053;55.870;37.592;2023-05-10T12:45:34;2.55;;;0.90;;
45316;SDS011;31053;55.870;37.592;2023-05-10T12:48:40;1.70;;;0.88;;
45316;SDS011;31053;55.870;37.592;2023-05-10T12:51:49;4.60;;;1.02;;
45316;SDS011;31053;55.870;37.592;2023-05-10T12:54:55;6.70;;;2.20;;
45316;SDS011;31053;55.870;37.592;2023-05-10T12:58:01;1.90;;;1.15;;
45316;SDS011;31053;55.870;37.592;2023-05-10T13:01:07;7.20;;;1.52;;
45316;SDS011;31053;55.870;37.592;2023-05-10T13:04:20;7.72;;;3.97;;
45316;SDS011;31053;55.870;37.592;2023-05-10T13:07:30;44.97;;;4.68;;
45316;SDS011;31053;55.870;37.592;2023-05-10T13:10:38;7.22;;;1.10;;
45316;SDS011;31053;55.870;37.592;2023-05-10T13:13:48;3.65;;;1.83;;
45316;SDS011;31053;55.870;37.592;2023-05-10T13:17:13;3.38;;;1.80;;
45316;SDS011;31053;55.870;37.592;2023-05-10T13:20:19;6.57;;;1.33;;
45316;SDS011;31053;55.870;37.592;2023-05-10T13:23:24;3.75;;;0.82;;
45316;SDS011;31053;55.870;37.592;2023-05-10T13:26:32;1.55;;;0.82;;
45316;SDS011;31053;55.870;37.592;2023-05-10T13:29:44;2.67;;;0.98;;
45316;SDS011;31053;55.870;37.592;2023-05-10T13:33:15;6.65;;;3.22;;
45316;SDS011;31053;55.870;37.592;2023-05-10T13:36:22;2.90;;;1.23;;
45316;SDS011;31053;55.870;37.592;2023-05-10T13:39:38;5.55;;;1.15;;
45316;SDS011;31053;55.870;37.592;2023-05-10T13:42:55;12.60;;;2.65;;
45316;SDS011;31053;55.870;37.592;2023-05-10T13:46:10;6.45;;;2.47;;
45316;SDS011;31053;55.870;37.592;2023-05-10T13:49:59;2.90;;;1.48;;
45316;SDS011;31053;55.870;37.592;2023-05-10T13:53:15;8.30;;;2.38;;
45316;SDS011;31053;55.870;37.592;2023-05-10T13:56:20;4.07;;;1.52;;
45316;SDS011;31053;55.870;37.592;2023-05-10T13:59:25;5.93;;;1.50;;
45316;SDS011;31053;55.870;37.592;2023-05-10T14:02:31;5.55;;;1.73;;
45316;SDS011;31053;55.870;37.592;2023-05-10T14:05:36;8.57;;;1.83;;
45316;SDS011;31053;55.870;37.592;2023-05-10T14:08:41;7.32;;;3.67;;
45316;SDS011;31053;55.870;37.592;2023-05-10T14:11:50;5.20;;;1.73;;
45316;SDS011;31053;55.870;37.592;2023-05-10T14:14:57;7.20;;;1.50;;
45316;SDS011;31053;55.870;37.592;2023-05-10T14:18:03;4.53;;;1.20;;
45316;SDS011;31053;55.870;37.592;2023-05-10T14:21:10;15.40;;;6.88;;
45316;SDS011;31053;55.870;37.592;2023-05-10T14:24:15;11.27;;;5.63;;
45316;SDS011;31053;55.870;37.592;2023-05-10T14:27:24;17.80;;;8.05;;
45316;SDS011;31053;55.870;37.592;2023-05-10T14:30:35;4.53;;;3.13;;
45316;SDS011;31053;55.870;37.592;2023-05-10T14:33:40;5.07;;;1.50;;
45316;SDS011;31053;55.870;37.592;2023-05-10T14:36:47;9.65;;;4.50;;
45316;SDS011;31053;55.870;37.592;2023-05-10T14:40:08;20.05;;;10.20;;
45316;SDS011;31053;55.870;37.592;2023-05-10T14:43:14;10.18;;;5.50;;
45316;SDS011;31053;55.870;37.592;2023-05-10T14:47:01;20.50;;;8.75;;
45316;SDS011;31053;55.870;37.592;2023-05-10T14:50:06;6.22;;;3.13;;
45316;SDS011;31053;55.870;37.592;2023-05-10T14:52:54;10.65;;;4.95;;
45316;SDS011;31053;55.870;37.592;2023-05-10T15:19:09;4.05;;;2.05;;
45316;SDS011;31053;55.870;37.592;2023-05-10T15:22:52;7.53;;;2.40;;
45316;SDS011;31053;55.870;37.592;2023-05-10T15:45:27;4.57;;;2.35;;
45316;SDS011;31053;55.870;37.592;2023-05-10T16:00:33;12.88;;;6.03;;
45316;SDS011;31053;55.870;37.592;2023-05-10T16:03:41;9.93;;;2.58;;
45316;SDS011;31053;55.870;37.592;2023-05-10T16:09:36;10.57;;;4.68;;
45316;SDS011;31053;55.870;37.592;2023-05-10T16:23:12;5.35;;;1.90;;
45316;SDS011;31053;55.870;37.592;2023-05-10T16:26:32;6.82;;;2.08;;
45316;SDS011;31053;55.870;37.592;2023-05-10T16:29:47;5.30;;;1.98;;
45316;SDS011;31053;55.870;37.592;2023-05-10T16:32:57;4.55;;;2.22;;
45316;SDS011;31053;55.870;37.592;2023-05-10T16:36:04;8.27;;;1.80;;
45316;SDS011;31053;55.870;37.592;2023-05-10T16:50:58;3.35;;;2.15;;
45316;SDS011;31053;55.870;37.592;2023-05-10T16:59:40;5.10;;;1.88;;
45316;SDS011;31053;55.870;37.592;2023-05-10T17:02:54;4.82;;;2.10;;
45316;SDS011;31053;55.870;37.592;2023-05-10T17:06:04;5.40;;;2.10;;
45316;SDS011;31053;55.870;37.592;2023-05-10T17:09:13;3.08;;;1.77;;
45316;SDS011;31053;55.870;37.592;2023-05-10T17:16:23;17.27;;;5.05;;
45316;SDS011;31053;55.870;37.592;2023-05-10T17:19:40;11.65;;;3.40;;
45316;SDS011;31053;55.870;37.592;2023-05-10T17:22:51;18.88;;;5.53;;
45316;SDS011;31053;55.870;37.592;2023-05-10T17:26:12;15.20;;;3.78;;
45316;SDS011;31053;55.870;37.592;2023-05-10T17:29:49;9.00;;;2.88;;
45316;SDS011;31053;55.870;37.592;2023-05-10T17:38:36;20.60;;;6.05;;
45316;SDS011;31053;55.870;37.592;2023-05-10T17:42:19;22.20;;;6.80;;
45316;SDS011;31053;55.870;37.592;2023-05-10T17:46:13;24.27;;;5.40;;
45316;SDS011;31053;55.870;37.592;2023-05-10T18:17:23;17.58;;;6.60;;
45316;SDS011;31053;55.870;37.592;2023-05-10T18:26:14;10.05;;;2.97;;
45316;SDS011;31053;55.870;37.592;2023-05-10T18:29:17;10.68;;;2.75;;
45316;SDS011;31053;55.870;37.592;2023-05-10T18:32:38;7.97;;;2.35;;
45316;SDS011;31053;55.870;37.592;2023-05-10T18:43:33;31.60;;;5.47;;
45316;SDS011;31053;55.870;37.592;2023-05-10T18:49:05;44.40;;;5.55;;
45316;SDS011;31053;55.870;37.592;2023-05-10T18:52:21;41.55;;;5.57;;
45316;SDS011;31053;55.870;37.592;2023-05-10T18:59:28;73.35;;;13.13;;
45316;SDS011;31053;55.870;37.592;2023-05-10T19:07:55;25.65;;;4.80;;
45316;SDS011;31053;55.870;37.592;2023-05-10T19:49:51;14.65;;;4.43;;
45316;SDS011;31053;55.870;37.592;2023-05-10T19:53:08;20.90;;;4.10;;
45316;SDS011;31053;55.870;37.592;2023-05-10T20:05:27;30.58;;;5.05;;
45316;SDS011;31053;55.870;37.592;2023-05-10T20:08:47;26.67;;;6.32;;
45316;SDS011;31053;55.870;37.592;2023-05-10T20:12:15;24.75;;;4.82;;
45316;SDS011;31053;55.870;37.592;2023-05-10T20:30:03;15.43;;;4.82;;
45316;SDS011;31053;55.870;37.592;2023-05-10T20:33:15;11.93;;;3.85;;
45316;SDS011;31053;55.870;37.592;2023-05-10T20:36:35;14.05;;;3.85;;
45316;SDS011;31053;55.870;37.592;2023-05-10T20:45:32;16.35;;;5.43;;
45316;SDS011;31053;55.870;37.592;2023-05-10T20:49:31;15.13;;;6.43;;
45316;SDS011;31053;55.870;37.592;2023-05-10T20:58:30;11.82;;;4.30;;
45316;SDS011;31053;55.870;37.592;2023-05-10T21:07:43;13.18;;;3.08;;
45316;SDS011;31053;55.870;37.592;2023-05-10T21:27:59;43.50;;;7.07;;
45316;SDS011;31053;55.870;37.592;2023-05-10T21:31:04;30.15;;;7.05;;
45316;SDS011;31053;55.870;37.592;2023-05-10T21:39:52;19.00;;;5.70;;
45316;SDS011;31053;55.870;37.592;2023-05-10T21:42:57;31.38;;;6.80;;
45316;SDS011;31053;55.870;37.592;2023-05-10T21:46:02;14.57;;;4.57;;
45316;SDS011;31053;55.870;37.592;2023-05-10T21:54:48;12.10;;;4.20;;
45316;SDS011;31053;55.870;37.592;2023-05-10T22:03:36;39.95;;;12.32;;
45316;SDS011;31053;55.870;37.592;2023-05-10T22:12:24;27.65;;;8.45;;
45316;SDS011;31053;55.870;37.592;2023-05-10T22:21:11;12.07;;;4.47;;
45316;SDS011;31053;55.870;37.592;2023-05-10T22:29:48;9.63;;;3.92;;
45316;SDS011;31053;55.870;37.592;2023-05-10T22:38:58;9.95;;;3.17;;
45316;SDS011;31053;55.870;37.592;2023-05-10T23:03:57;22.70;;;3.63;;
45316;SDS011;31053;55.870;37.592;2023-05-10T23:12:55;18.90;;;3.30;;
45316;SDS011;31053;55.870;37.592;2023-05-10T23:26:59;12.50;;;2.92;;
45316;SDS011;31053;55.870;37.592;2023-05-10T23:47:00;13.20;;;3.50;;
